createdAt,value
2019-03-12T00:00:02.420Z,92.40
2019-03-12T00:02:30.347Z,92.40
2019-03-12T00:04:58.359Z,92.50
2019-03-12T00:07:26.435Z,92.40
2019-03-12T00:09:54.393Z,92.40
2019-03-12T00:12:22.339Z,92.50
2019-03-12T00:14:51.692Z,92.50
2019-03-12T00:17:19.599Z,92.30
2019-03-12T00:19:47.479Z,92.30
2019-03-12T00:22:15.439Z,92.20
2019-03-12T00:24:43.620Z,92.20
2019-03-12T00:27:11.575Z,92.20
2019-03-12T00:29:39.543Z,92.00
2019-03-12T00:32:07.561Z,91.90
2019-03-12T00:34:35.492Z,91.90
2019-03-12T00:37:04.481Z,91.80
2019-03-12T00:39:32.460Z,91.80
2019-03-12T00:42:00.609Z,91.70
2019-03-12T00:44:28.840Z,91.60
2019-03-12T00:46:57.597Z,91.30
2019-03-12T00:49:25.591Z,91.30
2019-03-12T00:51:53.662Z,91.50
2019-03-12T00:54:21.604Z,91.40
2019-03-12T00:56:49.705Z,91.40
2019-03-12T00:59:18.701Z,91.50
2019-03-12T01:01:46.673Z,91.50
2019-03-12T01:04:15.686Z,91.50
2019-03-12T01:06:44.670Z,91.60
2019-03-12T01:09:12.646Z,91.50
2019-03-12T01:11:40.506Z,91.40
2019-03-12T01:14:08.426Z,91.40
2019-03-12T01:16:38.029Z,91.50
2019-03-12T01:19:07.172Z,91.40
2019-03-12T01:21:35.050Z,90.90
2019-03-12T01:24:02.919Z,90.50
2019-03-12T01:26:30.782Z,90.70
2019-03-12T01:28:58.623Z,90.20
2019-03-12T01:31:26.602Z,90.20
2019-03-12T01:33:54.500Z,90.30
2019-03-12T01:36:22.548Z,90.50
2019-03-12T01:38:50.399Z,90.60
2019-03-12T01:41:18.279Z,90.70
2019-03-12T01:43:46.127Z,90.60
2019-03-12T01:46:14.054Z,90.20
2019-03-12T01:48:41.916Z,89.20
2019-03-12T01:51:10.128Z,87.20
2019-03-12T01:53:38.153Z,86.90
2019-03-12T01:56:05.941Z,87.70
2019-03-12T01:58:34.170Z,87.80
2019-03-12T02:01:01.983Z,87.50
2019-03-12T02:03:29.867Z,87.60
2019-03-12T02:05:58.916Z,87.60
2019-03-12T02:08:26.964Z,88.00
2019-03-12T02:10:56.719Z,87.90
2019-03-12T02:13:24.296Z,88.00
2019-03-12T02:15:52.306Z,87.80
2019-03-12T02:18:20.143Z,87.60
2019-03-12T02:20:48.000Z,87.60
2019-03-12T02:23:15.876Z,88.20
2019-03-12T02:25:43.941Z,89.00
2019-03-12T02:28:11.936Z,89.50
2019-03-12T02:30:39.917Z,89.90
2019-03-12T02:33:07.820Z,90.10
2019-03-12T02:35:35.735Z,90.50
2019-03-12T02:38:03.672Z,90.60
2019-03-12T02:40:32.539Z,90.90
2019-03-12T02:43:00.409Z,91.10
2019-03-12T02:45:28.293Z,91.30
2019-03-12T02:47:56.135Z,91.50
2019-03-12T02:50:24.044Z,91.90
2019-03-12T02:52:51.901Z,91.70
2019-03-12T02:55:21.384Z,91.90
2019-03-12T02:57:49.237Z,92.00
2019-03-12T03:00:21.568Z,92.00
2019-03-12T03:02:49.384Z,92.20
2019-03-12T03:05:17.280Z,92.20
2019-03-12T03:07:49.318Z,92.30
2019-03-12T03:10:17.387Z,92.30
2019-03-12T03:12:45.690Z,92.30
2019-03-12T03:15:15.158Z,92.40
2019-03-12T03:17:43.039Z,92.40
2019-03-12T03:20:11.645Z,92.50
2019-03-12T03:22:39.547Z,92.40
2019-03-12T03:25:07.641Z,92.50
2019-03-12T03:27:35.657Z,92.60
2019-03-12T03:30:05.410Z,92.60
2019-03-12T03:32:33.275Z,92.70
2019-03-12T03:35:01.404Z,92.70
2019-03-12T03:37:29.424Z,92.80
2019-03-12T03:39:57.285Z,92.80
2019-03-12T03:42:25.318Z,92.80
2019-03-12T03:44:53.423Z,92.90
2019-03-12T03:47:21.415Z,93.00
2019-03-12T03:49:49.260Z,93.00
2019-03-12T03:52:17.809Z,93.10
2019-03-12T03:54:45.698Z,93.20
2019-03-12T03:57:13.744Z,93.30
2019-03-12T03:59:41.756Z,93.30
2019-03-12T04:02:10.923Z,93.40
2019-03-12T04:04:38.788Z,93.40
2019-03-12T04:07:06.765Z,93.50
2019-03-12T04:09:34.878Z,93.50
2019-03-12T04:12:02.834Z,93.40
2019-03-12T04:14:30.640Z,93.50
2019-03-12T04:16:58.562Z,93.50
2019-03-12T04:19:26.427Z,93.50
2019-03-12T04:21:54.287Z,93.60
2019-03-12T04:24:22.132Z,93.60
2019-03-12T04:26:52.034Z,93.50
2019-03-12T04:29:19.919Z,93.50
2019-03-12T04:31:48.437Z,93.50
2019-03-12T04:34:16.434Z,93.50
2019-03-12T04:36:46.008Z,93.50
2019-03-12T04:39:13.855Z,93.60
2019-03-12T04:41:41.735Z,93.70
2019-03-12T04:44:09.661Z,93.70
2019-03-12T04:46:38.681Z,93.80
2019-03-12T04:49:06.812Z,93.70
2019-03-12T04:51:34.808Z,93.70
2019-03-12T04:54:02.676Z,93.50
2019-03-12T04:56:33.861Z,93.50
2019-03-12T04:59:01.744Z,93.40
2019-03-12T05:01:29.714Z,93.50
2019-03-12T05:03:57.605Z,93.50
2019-03-12T05:06:25.485Z,93.60
2019-03-12T05:08:53.578Z,93.70
2019-03-12T05:11:21.537Z,93.90
2019-03-12T05:14:07.546Z,93.70
2019-03-12T05:16:35.508Z,93.70
2019-03-12T05:19:05.275Z,93.70
2019-03-12T05:21:33.276Z,93.70
2019-03-12T05:24:01.594Z,94.00
2019-03-12T05:26:29.845Z,93.70
2019-03-12T05:28:57.834Z,93.70
2019-03-12T05:31:25.919Z,93.70
2019-03-12T05:33:54.708Z,93.70
2019-03-12T05:36:22.916Z,93.70
2019-03-12T05:38:50.991Z,93.60
2019-03-12T05:41:19.152Z,93.60
2019-03-12T05:43:47.521Z,93.60
2019-03-12T05:46:20.858Z,93.60
2019-03-12T05:48:51.701Z,93.50
2019-03-12T05:51:20.633Z,93.50
2019-03-12T05:53:49.601Z,93.40
2019-03-12T05:56:17.666Z,93.40
2019-03-12T05:58:45.920Z,93.00
2019-03-12T06:01:14.171Z,92.80
2019-03-12T06:03:42.278Z,92.50
2019-03-12T06:06:10.305Z,92.40
2019-03-12T06:08:38.548Z,92.10
2019-03-12T06:11:06.627Z,92.00
2019-03-12T06:13:34.849Z,91.40
2019-03-12T06:16:02.959Z,91.20
2019-03-12T06:18:31.408Z,91.00
2019-03-12T06:20:59.607Z,91.00
2019-03-12T06:23:28.203Z,90.70
2019-03-12T06:25:56.660Z,90.60
2019-03-12T06:28:25.249Z,90.00
2019-03-12T06:31:11.825Z,88.90
2019-03-12T06:33:50.727Z,88.50
2019-03-12T06:36:23.221Z,88.20
2019-03-12T06:38:53.201Z,87.80
2019-03-12T06:41:28.884Z,87.20
2019-03-12T06:44:04.757Z,86.50
2019-03-12T06:46:40.456Z,86.60
2019-03-12T06:49:10.563Z,85.70
2019-03-12T06:51:40.384Z,85.10
2019-03-12T06:54:10.313Z,84.20
2019-03-12T06:56:40.096Z,84.30
2019-03-12T06:59:13.083Z,83.10
2019-03-12T07:01:43.081Z,83.10
2019-03-12T07:04:12.991Z,82.50
2019-03-12T07:06:43.301Z,82.10
2019-03-12T07:09:27.320Z,82.40
2019-03-12T07:12:02.116Z,82.60
2019-03-12T07:14:32.250Z,83.20
2019-03-12T07:17:02.110Z,83.40
2019-03-12T07:19:35.095Z,82.20
2019-03-12T07:22:07.833Z,82.00
2019-03-12T07:24:54.242Z,82.20
2019-03-12T07:27:24.054Z,81.70
2019-03-12T07:30:00.379Z,80.40
2019-03-12T07:32:33.057Z,79.30
2019-03-12T07:35:09.085Z,78.60
2019-03-12T07:37:39.041Z,78.40
2019-03-12T07:40:13.855Z,78.20
2019-03-12T07:42:49.642Z,78.00
2019-03-12T07:45:22.628Z,78.30
2019-03-12T07:47:55.354Z,78.70
2019-03-12T07:50:34.398Z,78.70
2019-03-12T07:53:20.368Z,78.50
2019-03-12T07:55:59.747Z,78.00
2019-03-12T07:58:35.549Z,78.00
2019-03-12T08:01:09.828Z,78.50
2019-03-12T08:03:45.393Z,78.20
2019-03-12T08:06:15.294Z,77.70
2019-03-12T08:09:01.225Z,77.80
2019-03-12T08:11:31.231Z,77.10
2019-03-12T08:14:13.202Z,77.30
2019-03-12T08:16:59.779Z,76.20
2019-03-12T08:19:35.614Z,76.20
2019-03-12T08:22:22.114Z,76.30
2019-03-12T08:24:55.135Z,76.40
2019-03-12T08:27:27.672Z,75.80
2019-03-12T08:29:59.387Z,76.00
2019-03-12T08:32:32.016Z,75.50
2019-03-12T08:35:11.852Z,75.80
2019-03-12T08:37:45.187Z,76.50
2019-03-12T08:40:15.473Z,77.80
2019-03-12T08:42:54.710Z,78.60
2019-03-12T08:45:16.924Z,79.30
2019-03-12T08:48:04.972Z,79.80
2019-03-12T08:50:40.631Z,80.40
2019-03-12T08:53:25.736Z,81.20
2019-03-12T08:55:58.516Z,82.10
2019-03-12T08:58:48.933Z,81.20
2019-03-12T09:01:27.959Z,81.40
2019-03-12T09:03:57.888Z,81.40
2019-03-12T09:06:27.831Z,81.60
2019-03-12T09:09:00.490Z,81.30
2019-03-12T09:11:39.753Z,80.80
2019-03-12T09:14:18.465Z,80.90
2019-03-12T09:16:48.328Z,80.70
2019-03-12T09:19:38.932Z,80.60
2019-03-12T09:22:26.942Z,80.40
2019-03-12T09:24:56.993Z,79.40
2019-03-12T09:27:26.821Z,79.30
2019-03-12T09:29:56.753Z,79.40
2019-03-12T09:32:26.650Z,78.70
2019-03-12T09:35:02.811Z,78.60
2019-03-12T09:37:39.080Z,78.20
2019-03-12T09:40:10.592Z,77.80
2019-03-12T09:42:58.835Z,77.60
2019-03-12T09:45:29.018Z,77.00
2019-03-12T09:48:15.205Z,75.70
2019-03-12T09:50:54.497Z,75.90
2019-03-12T09:53:33.458Z,75.50
2019-03-12T09:56:06.195Z,74.60
2019-03-12T09:58:38.853Z,74.20
2019-03-12T10:01:12.321Z,73.90
2019-03-12T10:03:44.729Z,73.10
2019-03-12T10:06:15.835Z,72.50
2019-03-12T10:08:46.335Z,71.00
2019-03-12T10:11:26.029Z,69.40
2019-03-12T10:13:56.733Z,68.30
2019-03-12T10:16:43.651Z,67.90
2019-03-12T10:19:16.878Z,67.20
2019-03-12T10:21:49.604Z,66.40
2019-03-12T10:24:36.661Z,64.40
2019-03-12T10:27:10.512Z,63.70
2019-03-12T10:29:44.065Z,60.10
2019-03-12T10:32:15.051Z,57.50
2019-03-12T10:34:55.252Z,56.90
2019-03-12T10:37:29.034Z,56.90
2019-03-12T10:40:07.481Z,56.80
2019-03-12T10:42:52.785Z,55.90
2019-03-12T10:45:35.414Z,54.70
2019-03-12T10:48:05.846Z,54.60
2019-03-12T10:50:34.996Z,54.90
2019-03-12T10:53:04.092Z,55.50
2019-03-12T10:55:33.379Z,55.70
2019-03-12T10:58:02.690Z,55.50
2019-03-12T11:00:31.808Z,56.10
2019-03-12T11:03:01.066Z,56.60
2019-03-12T11:05:30.142Z,56.80
2019-03-12T11:08:00.499Z,56.60
2019-03-12T11:10:30.201Z,56.50
2019-03-12T11:12:59.372Z,55.80
2019-03-12T11:15:29.070Z,55.20
2019-03-12T11:17:58.190Z,54.50
2019-03-12T11:20:28.264Z,54.20
2019-03-12T11:22:57.558Z,53.50
2019-03-12T11:25:28.169Z,54.10
2019-03-12T11:27:57.515Z,54.20
2019-03-12T11:30:26.891Z,54.10
2019-03-12T11:32:55.916Z,54.20
2019-03-12T11:35:25.127Z,53.80
2019-03-12T11:37:54.299Z,53.40
2019-03-12T11:40:28.974Z,52.20
2019-03-12T11:42:56.806Z,50.10
2019-03-12T11:45:36.118Z,48.80
2019-03-12T11:47:56.735Z,46.90
2019-03-12T11:50:27.880Z,45.50
2019-03-12T11:52:59.325Z,47.30
2019-03-12T11:55:28.164Z,49.10
2019-03-12T11:57:57.549Z,50.50
2019-03-12T12:00:28.620Z,51.70
2019-03-12T12:03:00.256Z,52.30
2019-03-12T12:05:30.832Z,52.50
2019-03-12T12:08:01.568Z,52.30
2019-03-12T12:10:30.643Z,51.90
2019-03-12T12:12:59.816Z,52.30
2019-03-12T12:15:28.996Z,51.50
2019-03-12T12:17:58.045Z,51.90
2019-03-12T12:20:29.959Z,52.00
2019-03-12T12:22:58.218Z,50.40
2019-03-12T12:25:27.736Z,50.60
2019-03-12T12:27:56.865Z,51.20
2019-03-12T12:30:25.982Z,51.00
2019-03-12T12:32:55.071Z,51.60
2019-03-12T12:35:24.395Z,52.20
2019-03-12T12:37:55.070Z,52.40
2019-03-12T12:40:25.737Z,52.40
2019-03-12T12:42:54.897Z,51.90
2019-03-12T12:45:39.220Z,51.10
2019-03-12T12:48:08.509Z,50.60
2019-03-12T12:50:37.998Z,51.40
2019-03-12T12:53:08.701Z,51.40
2019-03-12T12:55:38.066Z,51.70
2019-03-12T12:58:07.393Z,52.50
2019-03-12T13:00:38.384Z,53.10
2019-03-12T13:03:07.558Z,52.30
2019-03-12T13:05:38.101Z,52.60
2019-03-12T13:08:07.687Z,52.80
2019-03-12T13:10:36.841Z,53.00
2019-03-12T13:13:06.706Z,53.50
2019-03-12T13:15:35.963Z,53.20
2019-03-12T13:18:05.160Z,53.50
2019-03-12T13:20:34.507Z,54.70
2019-03-12T13:23:03.836Z,55.90
2019-03-12T13:25:33.729Z,56.10
2019-03-12T13:28:02.934Z,56.30
2019-03-12T13:30:31.981Z,56.30
2019-03-12T13:33:01.247Z,56.10
2019-03-12T13:35:32.441Z,56.80
2019-03-12T13:38:01.907Z,55.90
2019-03-12T13:40:31.152Z,55.60
2019-03-12T13:43:00.501Z,56.10
2019-03-12T13:45:31.225Z,56.10
2019-03-12T13:48:02.587Z,56.80
2019-03-12T13:50:33.122Z,56.90
2019-03-12T13:53:02.413Z,57.10
2019-03-12T13:55:31.929Z,57.20
2019-03-12T13:58:01.317Z,57.30
2019-03-12T14:00:33.107Z,57.30
2019-03-12T14:03:01.737Z,57.30
2019-03-12T14:05:30.781Z,56.60
2019-03-12T14:08:00.119Z,57.10
2019-03-12T14:10:29.584Z,57.10
2019-03-12T14:12:58.750Z,57.80
2019-03-12T14:15:40.851Z,57.30
2019-03-12T14:18:09.904Z,57.50
2019-03-12T14:20:47.934Z,57.80
2019-03-12T14:23:36.295Z,58.00
2019-03-12T14:26:04.798Z,57.70
2019-03-12T14:28:33.398Z,58.10
2019-03-12T14:31:02.526Z,58.40
2019-03-12T14:33:31.729Z,58.90
2019-03-12T14:36:00.754Z,59.00
2019-03-12T14:38:29.921Z,58.80
2019-03-12T14:40:59.148Z,58.90
2019-03-12T14:43:29.984Z,58.70
2019-03-12T14:45:59.037Z,58.20
2019-03-12T14:48:45.408Z,58.40
2019-03-12T14:51:35.808Z,58.50
2019-03-12T14:54:08.893Z,58.10
2019-03-12T14:56:37.937Z,58.70
2019-03-12T14:59:07.435Z,58.80
2019-03-12T15:01:36.624Z,59.60
2019-03-12T15:04:05.902Z,60.20
2019-03-12T15:06:35.221Z,61.00
2019-03-12T15:09:06.553Z,61.50
2019-03-12T15:11:38.463Z,62.20
2019-03-12T15:14:07.803Z,62.90
2019-03-12T15:16:38.156Z,63.40
2019-03-12T15:19:07.460Z,63.00
2019-03-12T15:21:36.512Z,63.00
2019-03-12T15:24:06.052Z,63.30
2019-03-12T15:26:35.142Z,63.70
2019-03-12T15:29:04.524Z,64.20
2019-03-12T15:31:33.845Z,65.00
2019-03-12T15:34:02.809Z,65.50
2019-03-12T15:36:32.193Z,66.00
2019-03-12T15:39:01.230Z,66.70
2019-03-12T15:41:31.781Z,66.80
2019-03-12T15:44:00.724Z,67.50
2019-03-12T15:46:29.943Z,67.90
2019-03-12T15:48:59.061Z,68.30
2019-03-12T15:51:28.132Z,68.40
2019-03-12T15:53:56.737Z,68.60
2019-03-12T15:56:29.154Z,69.00
2019-03-12T15:58:58.311Z,69.50
2019-03-12T16:01:27.068Z,69.90
2019-03-12T16:03:57.488Z,70.10
2019-03-12T16:06:26.593Z,70.20
2019-03-12T16:08:54.784Z,70.50
2019-03-12T16:11:23.246Z,70.60
2019-03-12T16:13:51.572Z,70.80
2019-03-12T16:16:19.732Z,71.30
2019-03-12T16:18:47.653Z,71.60
2019-03-12T16:21:15.815Z,71.90
2019-03-12T16:23:44.686Z,72.20
2019-03-12T16:26:12.780Z,72.60
2019-03-12T16:28:41.108Z,73.00
2019-03-12T16:31:10.552Z,73.40
2019-03-12T16:33:38.593Z,73.70
2019-03-12T16:36:08.278Z,74.40
2019-03-12T16:38:37.433Z,75.10
2019-03-12T16:41:05.582Z,75.50
2019-03-12T16:43:33.632Z,75.90
2019-03-12T16:46:01.818Z,76.30
2019-03-12T16:48:31.462Z,76.80
2019-03-12T16:50:59.744Z,77.10
2019-03-12T16:53:27.672Z,77.60
2019-03-12T16:55:55.961Z,77.90
2019-03-12T16:58:23.997Z,78.20
2019-03-12T17:00:51.849Z,78.20
2019-03-12T17:03:19.781Z,78.20
2019-03-12T17:05:47.862Z,77.60
2019-03-12T17:08:17.421Z,77.40
2019-03-12T17:10:58.238Z,77.10
2019-03-12T17:13:15.269Z,77.00
2019-03-12T17:16:01.194Z,77.10
2019-03-12T17:18:29.606Z,77.00
2019-03-12T17:20:57.788Z,76.90
2019-03-12T17:23:27.122Z,77.20
2019-03-12T17:25:55.390Z,77.10
2019-03-12T17:28:23.660Z,77.20
2019-03-12T17:30:52.118Z,77.50
2019-03-12T17:33:20.573Z,77.60
2019-03-12T17:35:51.336Z,77.90
2019-03-12T17:38:21.283Z,78.10
2019-03-12T17:40:49.726Z,78.20
2019-03-12T17:43:18.856Z,78.60
2019-03-12T17:45:47.006Z,78.70
2019-03-12T17:48:15.169Z,79.00
2019-03-12T17:50:43.336Z,79.10
2019-03-12T17:53:11.579Z,79.40
2019-03-12T17:55:41.429Z,79.70
2019-03-12T17:58:09.735Z,79.80
2019-03-12T18:00:39.416Z,80.50
2019-03-12T18:03:07.737Z,80.00
2019-03-12T18:05:35.816Z,80.50
2019-03-12T18:08:04.464Z,80.50
2019-03-12T18:10:32.614Z,80.80
2019-03-12T18:13:01.496Z,81.00
2019-03-12T18:15:29.735Z,81.20
2019-03-12T18:17:58.063Z,81.50
2019-03-12T18:20:26.537Z,81.70
2019-03-12T18:22:54.931Z,82.00
2019-03-12T18:25:27.810Z,82.20
2019-03-12T18:27:56.214Z,82.50
2019-03-12T18:30:24.460Z,82.60
2019-03-12T18:32:53.904Z,82.90
2019-03-12T18:35:22.303Z,83.20
2019-03-12T18:37:54.330Z,83.20
2019-03-12T18:40:24.621Z,83.40
2019-03-12T18:42:53.297Z,83.60
2019-03-12T18:45:23.319Z,83.70
2019-03-12T18:47:51.675Z,84.60
2019-03-12T18:50:22.211Z,83.70
2019-03-12T18:52:50.492Z,83.60
2019-03-12T18:55:32.544Z,83.70
2019-03-12T18:58:01.205Z,83.50
2019-03-12T19:00:29.674Z,84.30
2019-03-12T19:03:00.801Z,83.30
2019-03-12T19:05:31.282Z,83.20
2019-03-12T19:07:59.408Z,82.90
2019-03-12T19:10:27.353Z,82.70
2019-03-12T19:12:56.945Z,82.30
2019-03-12T19:15:25.132Z,82.20
2019-03-12T19:17:53.272Z,82.00
2019-03-12T19:20:22.714Z,81.90
2019-03-12T19:22:52.401Z,81.70
2019-03-12T19:25:31.172Z,81.70
2019-03-12T19:28:00.612Z,81.50
2019-03-12T19:30:28.737Z,81.40
2019-03-12T19:32:59.708Z,81.10
2019-03-12T19:35:31.056Z,80.90
2019-03-12T19:37:59.873Z,80.70
2019-03-12T19:40:29.686Z,80.40
2019-03-12T19:42:59.605Z,79.90
2019-03-12T19:45:28.054Z,79.60
2019-03-12T19:47:56.117Z,79.30
2019-03-12T19:50:24.760Z,78.60
2019-03-12T19:52:53.072Z,78.40
2019-03-12T19:55:25.650Z,78.00
2019-03-12T19:57:54.998Z,77.90
2019-03-12T20:00:25.035Z,77.50
2019-03-12T20:02:53.182Z,77.10
2019-03-12T20:05:21.429Z,77.00
2019-03-12T20:07:49.650Z,76.70
2019-03-12T20:10:36.417Z,76.30
2019-03-12T20:13:06.418Z,76.20
2019-03-12T20:15:36.315Z,76.00
2019-03-12T20:18:22.612Z,75.60
2019-03-12T20:20:58.233Z,75.40
2019-03-12T20:23:27.795Z,75.20
2019-03-12T20:26:04.135Z,74.60
2019-03-12T20:28:36.546Z,74.10
2019-03-12T20:31:22.897Z,73.80
2019-03-12T20:34:08.825Z,73.40
2019-03-12T20:36:55.552Z,72.80
2019-03-12T20:39:41.786Z,72.20
2019-03-12T20:42:14.059Z,71.70
2019-03-12T20:44:55.784Z,71.60
2019-03-12T20:47:31.225Z,71.30
2019-03-12T20:50:03.663Z,71.10
2019-03-12T20:52:48.442Z,71.00
2019-03-12T20:55:36.484Z,71.00
2019-03-12T20:58:22.456Z,71.30
2019-03-12T21:01:04.056Z,71.10
2019-03-12T21:03:50.376Z,71.30
2019-03-12T21:06:23.136Z,71.50
2019-03-12T21:09:04.761Z,71.60
2019-03-12T21:11:46.164Z,71.70
2019-03-12T21:14:32.098Z,71.70
2019-03-12T21:17:10.357Z,71.70
2019-03-12T21:19:56.715Z,71.70
2019-03-12T21:22:41.653Z,71.60
2019-03-12T21:25:17.250Z,71.30
2019-03-12T21:27:50.797Z,71.50
2019-03-12T21:30:20.606Z,71.30
2019-03-12T21:32:49.725Z,71.20
2019-03-12T21:35:17.776Z,71.40
2019-03-12T21:37:46.078Z,71.40
2019-03-12T21:40:15.141Z,71.70
2019-03-12T21:42:44.370Z,72.20
2019-03-12T21:45:12.758Z,71.70
2019-03-12T21:47:40.722Z,71.70
2019-03-12T21:50:10.529Z,71.70
2019-03-12T21:52:38.676Z,71.70
2019-03-12T21:55:10.760Z,71.70
2019-03-12T21:57:38.741Z,71.50
2019-03-12T22:00:10.816Z,71.60
2019-03-12T22:05:53.290Z,71.40
2019-03-12T22:08:21.134Z,71.30
2019-03-12T22:10:48.988Z,71.20
2019-03-12T22:13:18.066Z,72.00
2019-03-12T22:15:45.846Z,71.30
2019-03-12T22:18:13.690Z,71.30
2019-03-12T22:20:41.480Z,71.30
2019-03-12T22:23:19.801Z,71.10
2019-03-12T22:25:47.917Z,71.20
2019-03-12T22:28:16.507Z,71.10
2019-03-12T22:30:44.545Z,70.70
2019-03-12T22:33:12.596Z,70.90
2019-03-12T22:35:40.367Z,70.60
2019-03-12T22:38:08.203Z,70.70
2019-03-12T22:40:35.983Z,70.40
2019-03-12T22:43:03.876Z,70.30
2019-03-12T22:45:31.868Z,70.00
2019-03-12T22:47:59.658Z,69.90
2019-03-12T22:50:27.485Z,69.70
2019-03-12T22:52:55.286Z,69.70
2019-03-12T22:55:23.151Z,69.60
2019-03-12T22:57:52.740Z,69.30
2019-03-12T23:00:21.185Z,69.10
2019-03-12T23:02:49.270Z,68.90
2019-03-12T23:05:18.032Z,68.80
2019-03-12T23:07:46.126Z,68.60
2019-03-12T23:10:15.029Z,68.60
2019-03-12T23:12:43.232Z,68.60
2019-03-12T23:15:12.909Z,68.40
2019-03-12T23:17:40.801Z,68.20
2019-03-12T23:20:10.187Z,68.00
2019-03-12T23:22:38.078Z,67.70
2019-03-12T23:25:06.658Z,67.80
2019-03-12T23:27:34.680Z,67.60
2019-03-12T23:30:02.614Z,67.50
2019-03-12T23:32:30.622Z,67.40
2019-03-12T23:34:58.612Z,67.40
2019-03-12T23:37:28.159Z,67.40
2019-03-12T23:39:56.299Z,67.30
2019-03-12T23:42:24.202Z,67.30
2019-03-12T23:44:52.112Z,67.40
2019-03-12T23:47:20.043Z,67.10
2019-03-12T23:49:48.066Z,67.10
2019-03-12T23:52:17.379Z,67.30
2019-03-12T23:54:46.964Z,67.80
2019-03-12T23:57:16.097Z,67.20
2019-03-12T23:59:46.942Z,67.30
